FIN1NX EFHK-ESSA
Flight info
| Callsign | FIN1NX |
|---|---|
| Flight time | 0h 45m |
| Altitude | 38000 |
| Route | ADIVO Y365 POGOK DCT RUNGA N872 XILAN |
| Aircraft | A20N/M-SDE2E3FGHIRWXY/LB1 |
Departure
| Time | 2026-05-05 00:55 |
|---|---|
| Airport | Helsinki Vantaa Airport (EFHK) |
Arrival
| Time | 2026-05-05 01:40 |
|---|---|
| Airport | Stockholm-Arlanda Airport (ESSA) |
| Time | Latitude | Longitude | Altitude | Speed | Heading |
|---|---|---|---|---|---|
| 2026-05-05 00:33 | 60.31864 | 24.97002 | 189 ft | 0 kts | 243° |
| 2026-05-05 00:46 | 60.31869 | 24.97022 | 189 ft | 2 kts | 243° |
| 2026-05-05 00:46 | 60.31876 | 24.97049 | 189 ft | 2 kts | 243° |
| 2026-05-05 00:46 | 60.31883 | 24.97077 | 189 ft | 2 kts | 253° |
| 2026-05-05 00:47 | 60.31884 | 24.97107 | 189 ft | 2 kts | 284° |
| 2026-05-05 00:47 | 60.31878 | 24.97134 | 190 ft | 2 kts | 311° |
| 2026-05-05 00:47 | 60.31869 | 24.97149 | 190 ft | 0 kts | 330° |
| 2026-05-05 00:47 | 60.31863 | 24.97155 | 190 ft | 0 kts | 333° |
| 2026-05-05 00:49 | 60.31866 | 24.97152 | 189 ft | 2 kts | 333° |
| 2026-05-05 00:49 | 60.31891 | 24.97125 | 189 ft | 5 kts | 332° |
| 2026-05-05 00:50 | 60.31933 | 24.97082 | 189 ft | 9 kts | 332° |
| 2026-05-05 00:50 | 60.32015 | 24.96994 | 189 ft | 15 kts | 332° |
| 2026-05-05 00:50 | 60.32114 | 24.96887 | 189 ft | 16 kts | 331° |
| 2026-05-05 00:50 | 60.32214 | 24.96772 | 189 ft | 16 kts | 329° |
| 2026-05-05 00:51 | 60.32317 | 24.96650 | 189 ft | 17 kts | 329° |
| 2026-05-05 00:51 | 60.32422 | 24.96527 | 189 ft | 17 kts | 330° |
| 2026-05-05 00:51 | 60.32530 | 24.96402 | 189 ft | 18 kts | 330° |
| 2026-05-05 00:51 | 60.32639 | 24.96276 | 189 ft | 18 kts | 329° |
| 2026-05-05 00:52 | 60.32750 | 24.96144 | 189 ft | 18 kts | 330° |
| 2026-05-05 00:52 | 60.32862 | 24.96014 | 189 ft | 18 kts | 329° |
| 2026-05-05 00:52 | 60.32975 | 24.95880 | 189 ft | 19 kts | 330° |
| 2026-05-05 00:52 | 60.33089 | 24.95740 | 189 ft | 19 kts | 321° |
| 2026-05-05 00:53 | 60.33186 | 24.95554 | 189 ft | 19 kts | 313° |
| 2026-05-05 00:53 | 60.33179 | 24.95326 | 189 ft | 18 kts | 229° |
| 2026-05-05 00:53 | 60.33111 | 24.95111 | 189 ft | 18 kts | 261° |
| 2026-05-05 00:53 | 60.33112 | 24.94852 | 189 ft | 18 kts | 272° |
| 2026-05-05 00:54 | 60.33117 | 24.94597 | 189 ft | 18 kts | 272° |
| 2026-05-05 00:54 | 60.33094 | 24.94347 | 189 ft | 19 kts | 232° |
| 2026-05-05 00:54 | 60.32849 | 24.93812 | 189 ft | 90 kts | 227° |
| 2026-05-05 00:54 | 60.32270 | 24.92535 | 205 ft | 152 kts | 227° |
| 2026-05-05 00:55 | 60.31521 | 24.90912 | 761 ft | 161 kts | 227° |
| 2026-05-05 00:55 | 60.30770 | 24.89302 | 1645 ft | 159 kts | 229° |
| 2026-05-05 00:55 | 60.30168 | 24.87531 | 2440 ft | 159 kts | 247° |
| 2026-05-05 00:55 | 60.30052 | 24.85271 | 2929 ft | 177 kts | 281° |
| 2026-05-05 00:56 | 60.30516 | 24.82825 | 3396 ft | 199 kts | 291° |
| 2026-05-05 00:56 | 60.31129 | 24.80182 | 3933 ft | 219 kts | 292° |
| 2026-05-05 00:56 | 60.31628 | 24.77212 | 4523 ft | 235 kts | 278° |
| 2026-05-05 00:56 | 60.31735 | 24.73863 | 5244 ft | 247 kts | 268° |
| 2026-05-05 00:57 | 60.31675 | 24.70422 | 6214 ft | 250 kts | 266° |
| 2026-05-05 00:57 | 60.31594 | 24.66944 | 7207 ft | 252 kts | 266° |
| 2026-05-05 00:57 | 60.31507 | 24.63412 | 8163 ft | 254 kts | 266° |
| 2026-05-05 00:57 | 60.31422 | 24.59928 | 9127 ft | 256 kts | 266° |
| 2026-05-05 00:58 | 60.31334 | 24.56364 | 10113 ft | 256 kts | 266° |
| 2026-05-05 00:58 | 60.31245 | 24.52731 | 10731 ft | 269 kts | 266° |
| 2026-05-05 00:58 | 60.31150 | 24.48937 | 11474 ft | 276 kts | 266° |
| 2026-05-05 00:58 | 60.31053 | 24.45104 | 12413 ft | 276 kts | 266° |
| 2026-05-05 00:59 | 60.30956 | 24.41291 | 13350 ft | 276 kts | 266° |
| 2026-05-05 00:59 | 60.30856 | 24.37452 | 14240 ft | 276 kts | 265° |
| 2026-05-05 00:59 | 60.30754 | 24.33624 | 15092 ft | 277 kts | 265° |
| 2026-05-05 00:59 | 60.30650 | 24.29773 | 15878 ft | 279 kts | 265° |
| 2026-05-05 01:00 | 60.30543 | 24.25871 | 16637 ft | 282 kts | 265° |
| 2026-05-05 01:00 | 60.30436 | 24.21964 | 17369 ft | 285 kts | 265° |
| 2026-05-05 01:00 | 60.30326 | 24.18015 | 18099 ft | 287 kts | 265° |
| 2026-05-05 01:00 | 60.30212 | 24.13974 | 18805 ft | 290 kts | 265° |
| 2026-05-05 01:01 | 60.30097 | 24.09933 | 19493 ft | 292 kts | 265° |
| 2026-05-05 01:01 | 60.29982 | 24.05893 | 20180 ft | 294 kts | 265° |
| 2026-05-05 01:01 | 60.29845 | 24.01771 | 20865 ft | 296 kts | 264° |
| 2026-05-05 01:01 | 60.29604 | 23.97678 | 21510 ft | 298 kts | 262° |
| 2026-05-05 01:02 | 60.29241 | 23.93580 | 22156 ft | 301 kts | 259° |
| 2026-05-05 01:02 | 60.28802 | 23.89450 | 22816 ft | 302 kts | 259° |
| 2026-05-05 01:02 | 60.28365 | 23.85350 | 23433 ft | 304 kts | 259° |
| 2026-05-05 01:02 | 60.27922 | 23.81216 | 24020 ft | 306 kts | 259° |
| 2026-05-05 01:03 | 60.27469 | 23.77023 | 24525 ft | 311 kts | 259° |
| 2026-05-05 01:03 | 60.26999 | 23.72678 | 24831 ft | 321 kts | 259° |
| 2026-05-05 01:03 | 60.26522 | 23.68311 | 25273 ft | 326 kts | 259° |
| 2026-05-05 01:03 | 60.26033 | 23.63835 | 25793 ft | 330 kts | 259° |
| 2026-05-05 01:04 | 60.25536 | 23.59309 | 26316 ft | 332 kts | 258° |
| 2026-05-05 01:04 | 60.24530 | 23.50222 | 27265 ft | 339 kts | 258° |
| 2026-05-05 01:04 | 60.24016 | 23.45617 | 27746 ft | 341 kts | 258° |
| 2026-05-05 01:05 | 60.23497 | 23.40966 | 28176 ft | 343 kts | 258° |
| 2026-05-05 01:05 | 60.22969 | 23.36263 | 28559 ft | 347 kts | 258° |
| 2026-05-05 01:05 | 60.22440 | 23.31575 | 28933 ft | 350 kts | 258° |
| 2026-05-05 01:05 | 60.21898 | 23.26763 | 29333 ft | 352 kts | 257° |
| 2026-05-05 01:06 | 60.21355 | 23.21982 | 29726 ft | 354 kts | 257° |
| 2026-05-05 01:06 | 60.20807 | 23.17155 | 30097 ft | 356 kts | 257° |
| 2026-05-05 01:06 | 60.20257 | 23.12338 | 30524 ft | 356 kts | 257° |
| 2026-05-05 01:06 | 60.19709 | 23.07558 | 30954 ft | 355 kts | 257° |
| 2026-05-05 01:07 | 60.19154 | 23.02741 | 31365 ft | 354 kts | 257° |
| 2026-05-05 01:07 | 60.18599 | 22.97934 | 31767 ft | 353 kts | 257° |
| 2026-05-05 01:07 | 60.18052 | 22.93203 | 32132 ft | 353 kts | 257° |
| 2026-05-05 01:07 | 60.17493 | 22.88385 | 32512 ft | 352 kts | 257° |
| 2026-05-05 01:08 | 60.16943 | 22.83673 | 32871 ft | 352 kts | 257° |
| 2026-05-05 01:08 | 60.16386 | 22.78922 | 33196 ft | 352 kts | 257° |
| 2026-05-05 01:08 | 60.15822 | 22.74126 | 33508 ft | 352 kts | 257° |
| 2026-05-05 01:08 | 60.15267 | 22.69413 | 33826 ft | 352 kts | 257° |
| 2026-05-05 01:09 | 60.14705 | 22.64653 | 34114 ft | 352 kts | 257° |
| 2026-05-05 01:09 | 60.14139 | 22.59894 | 34396 ft | 351 kts | 257° |
| 2026-05-05 01:09 | 60.13573 | 22.55122 | 34635 ft | 352 kts | 257° |
| 2026-05-05 01:09 | 60.13014 | 22.50412 | 34842 ft | 352 kts | 257° |
| 2026-05-05 01:10 | 60.12438 | 22.45603 | 35042 ft | 353 kts | 257° |
| 2026-05-05 01:10 | 60.11868 | 22.40852 | 35245 ft | 353 kts | 257° |
| 2026-05-05 01:10 | 60.11292 | 22.36078 | 35418 ft | 354 kts | 257° |
| 2026-05-05 01:10 | 60.10715 | 22.31327 | 35608 ft | 355 kts | 256° |
| 2026-05-05 01:11 | 60.10136 | 22.26553 | 35772 ft | 356 kts | 256° |
| 2026-05-05 01:11 | 60.09545 | 22.21700 | 35948 ft | 358 kts | 256° |
| 2026-05-05 01:11 | 60.08952 | 22.16850 | 36086 ft | 359 kts | 256° |
| 2026-05-05 01:11 | 60.08360 | 22.12037 | 36270 ft | 361 kts | 256° |
| 2026-05-05 01:12 | 60.07761 | 22.07165 | 36414 ft | 363 kts | 256° |
| 2026-05-05 01:12 | 60.07156 | 22.02268 | 36537 ft | 365 kts | 256° |
| 2026-05-05 01:12 | 60.06549 | 21.97376 | 36659 ft | 367 kts | 256° |
| 2026-05-05 01:12 | 60.05935 | 21.92441 | 36802 ft | 368 kts | 256° |
| 2026-05-05 01:13 | 60.05310 | 21.87442 | 36927 ft | 370 kts | 256° |
| 2026-05-05 01:13 | 60.04694 | 21.82506 | 37047 ft | 372 kts | 256° |
| 2026-05-05 01:13 | 60.04065 | 21.77514 | 37151 ft | 372 kts | 256° |
| 2026-05-05 01:13 | 60.03431 | 21.72474 | 36780 ft | 374 kts | 256° |
| 2026-05-05 01:14 | 60.02801 | 21.67506 | 36320 ft | 374 kts | 256° |
| 2026-05-05 01:14 | 60.02159 | 21.62462 | 35826 ft | 375 kts | 256° |
| 2026-05-05 01:14 | 60.01525 | 21.57489 | 35295 ft | 377 kts | 256° |
| 2026-05-05 01:14 | 60.00872 | 21.52396 | 34684 ft | 380 kts | 256° |
| 2026-05-05 01:15 | 60.00223 | 21.47342 | 34016 ft | 382 kts | 256° |
| 2026-05-05 01:15 | 59.99565 | 21.42231 | 33258 ft | 382 kts | 256° |
| 2026-05-05 01:15 | 59.98899 | 21.37109 | 32566 ft | 381 kts | 256° |
| 2026-05-05 01:15 | 59.98212 | 21.32092 | 31922 ft | 379 kts | 255° |
| 2026-05-05 01:16 | 59.97514 | 21.27066 | 31274 ft | 377 kts | 255° |
| 2026-05-05 01:16 | 59.96818 | 21.22085 | 30624 ft | 375 kts | 255° |
| 2026-05-05 01:16 | 59.96125 | 21.17119 | 29938 ft | 373 kts | 255° |
| 2026-05-05 01:16 | 59.95431 | 21.12171 | 29272 ft | 370 kts | 255° |
| 2026-05-05 01:17 | 59.94742 | 21.07250 | 28598 ft | 368 kts | 255° |
| 2026-05-05 01:17 | 59.94059 | 21.02408 | 27926 ft | 366 kts | 256° |
| 2026-05-05 01:17 | 59.93372 | 20.97536 | 27246 ft | 364 kts | 255° |
| 2026-05-05 01:17 | 59.92691 | 20.92738 | 26700 ft | 359 kts | 256° |
| 2026-05-05 01:18 | 59.92027 | 20.88066 | 26253 ft | 352 kts | 256° |
| 2026-05-05 01:18 | 59.91369 | 20.83448 | 25809 ft | 346 kts | 256° |
| 2026-05-05 01:18 | 59.90714 | 20.78865 | 25364 ft | 340 kts | 256° |
| 2026-05-05 01:18 | 59.90075 | 20.74405 | 24932 ft | 334 kts | 256° |
| 2026-05-05 01:19 | 59.89447 | 20.70018 | 24511 ft | 329 kts | 256° |
| 2026-05-05 01:19 | 59.88826 | 20.65725 | 24088 ft | 324 kts | 256° |
| 2026-05-05 01:19 | 59.88208 | 20.61438 | 23660 ft | 320 kts | 256° |
| 2026-05-05 01:19 | 59.87597 | 20.57219 | 23241 ft | 316 kts | 256° |
| 2026-05-05 01:20 | 59.86995 | 20.53070 | 22828 ft | 312 kts | 256° |
| 2026-05-05 01:20 | 59.86402 | 20.48990 | 22423 ft | 308 kts | 256° |
| 2026-05-05 01:20 | 59.85812 | 20.44945 | 22014 ft | 305 kts | 256° |
| 2026-05-05 01:20 | 59.85225 | 20.40931 | 21614 ft | 302 kts | 256° |
| 2026-05-05 01:21 | 59.84640 | 20.36942 | 21353 ft | 305 kts | 256° |
| 2026-05-05 01:21 | 59.84039 | 20.32856 | 21103 ft | 305 kts | 255° |
| 2026-05-05 01:21 | 59.83448 | 20.28844 | 20846 ft | 305 kts | 255° |
| 2026-05-05 01:21 | 59.82858 | 20.24839 | 20597 ft | 304 kts | 255° |
| 2026-05-05 01:22 | 59.82264 | 20.20825 | 20351 ft | 303 kts | 255° |
| 2026-05-05 01:22 | 59.81670 | 20.16827 | 20099 ft | 302 kts | 255° |
| 2026-05-05 01:22 | 59.81079 | 20.12853 | 19851 ft | 300 kts | 255° |
| 2026-05-05 01:22 | 59.80492 | 20.08923 | 19598 ft | 299 kts | 255° |
| 2026-05-05 01:23 | 59.79903 | 20.04977 | 19347 ft | 298 kts | 255° |
| 2026-05-05 01:23 | 59.79321 | 20.01078 | 19094 ft | 297 kts | 255° |
| 2026-05-05 01:23 | 59.78732 | 19.97159 | 18843 ft | 296 kts | 255° |
| 2026-05-05 01:23 | 59.78146 | 19.93267 | 18589 ft | 296 kts | 255° |
| 2026-05-05 01:24 | 59.77558 | 19.89374 | 18342 ft | 294 kts | 255° |
| 2026-05-05 01:24 | 59.76976 | 19.85522 | 18029 ft | 294 kts | 255° |
| 2026-05-05 01:24 | 59.76389 | 19.81659 | 17628 ft | 292 kts | 255° |
| 2026-05-05 01:24 | 59.75811 | 19.77848 | 17219 ft | 290 kts | 254° |
| 2026-05-05 01:25 | 59.75230 | 19.74031 | 16801 ft | 287 kts | 255° |
| 2026-05-05 01:25 | 59.74677 | 19.70280 | 16377 ft | 285 kts | 255° |
| 2026-05-05 01:25 | 59.74163 | 19.66507 | 15932 ft | 284 kts | 255° |
| 2026-05-05 01:25 | 59.73652 | 19.62732 | 15489 ft | 283 kts | 255° |
| 2026-05-05 01:26 | 59.73144 | 19.59016 | 15031 ft | 282 kts | 255° |
| 2026-05-05 01:26 | 59.72633 | 19.55283 | 14584 ft | 281 kts | 255° |
| 2026-05-05 01:26 | 59.72120 | 19.51558 | 14133 ft | 280 kts | 255° |
| 2026-05-05 01:26 | 59.71606 | 19.47849 | 13691 ft | 279 kts | 255° |
| 2026-05-05 01:27 | 59.71097 | 19.44179 | 13246 ft | 279 kts | 255° |
| 2026-05-05 01:27 | 59.70588 | 19.40519 | 12761 ft | 280 kts | 255° |
| 2026-05-05 01:27 | 59.70070 | 19.36805 | 12253 ft | 281 kts | 255° |
| 2026-05-05 01:27 | 59.69550 | 19.33090 | 11782 ft | 280 kts | 254° |
| 2026-05-05 01:28 | 59.69034 | 19.29416 | 11327 ft | 280 kts | 254° |
| 2026-05-05 01:28 | 59.68515 | 19.25710 | 10864 ft | 280 kts | 254° |
| 2026-05-05 01:28 | 59.67997 | 19.22032 | 10414 ft | 280 kts | 254° |
| 2026-05-05 01:28 | 59.67477 | 19.18350 | 10012 ft | 277 kts | 254° |
| 2026-05-05 01:29 | 59.66968 | 19.14750 | 9845 ft | 266 kts | 254° |
| 2026-05-05 01:29 | 59.66478 | 19.11289 | 9740 ft | 253 kts | 255° |
| 2026-05-05 01:29 | 59.66163 | 19.07956 | 9513 ft | 247 kts | 264° |
| 2026-05-05 01:29 | 59.66162 | 19.04579 | 9127 ft | 248 kts | 272° |
| 2026-05-05 01:30 | 59.66347 | 19.01244 | 8753 ft | 247 kts | 274° |
| 2026-05-05 01:30 | 59.66554 | 18.97896 | 8393 ft | 246 kts | 274° |
| 2026-05-05 01:30 | 59.66765 | 18.94520 | 8026 ft | 245 kts | 275° |
| 2026-05-05 01:30 | 59.66969 | 18.91214 | 7680 ft | 243 kts | 275° |
| 2026-05-05 01:31 | 59.67172 | 18.87908 | 7327 ft | 242 kts | 275° |
| 2026-05-05 01:31 | 59.67371 | 18.84633 | 6987 ft | 241 kts | 275° |
| 2026-05-05 01:31 | 59.67571 | 18.81351 | 6646 ft | 239 kts | 275° |
| 2026-05-05 01:31 | 59.67766 | 18.78125 | 6307 ft | 238 kts | 275° |
| 2026-05-05 01:32 | 59.67959 | 18.74909 | 5987 ft | 236 kts | 275° |
| 2026-05-05 01:32 | 59.68150 | 18.71694 | 5672 ft | 234 kts | 275° |
| 2026-05-05 01:32 | 59.68339 | 18.68515 | 5356 ft | 232 kts | 275° |
| 2026-05-05 01:32 | 59.68525 | 18.65391 | 5056 ft | 230 kts | 276° |
| 2026-05-05 01:33 | 59.68710 | 18.62251 | 4751 ft | 228 kts | 276° |
| 2026-05-05 01:33 | 59.68891 | 18.59170 | 4438 ft | 226 kts | 276° |
| 2026-05-05 01:33 | 59.69071 | 18.56095 | 4134 ft | 224 kts | 276° |
| 2026-05-05 01:33 | 59.69247 | 18.53072 | 3833 ft | 223 kts | 276° |
| 2026-05-05 01:34 | 59.69423 | 18.50048 | 3529 ft | 221 kts | 277° |
| 2026-05-05 01:34 | 59.69598 | 18.47017 | 3220 ft | 220 kts | 277° |
| 2026-05-05 01:34 | 59.69772 | 18.44032 | 2916 ft | 219 kts | 277° |
| 2026-05-05 01:34 | 59.69944 | 18.41067 | 2620 ft | 218 kts | 276° |
| 2026-05-05 01:35 | 59.70108 | 18.38185 | 2581 ft | 204 kts | 276° |
| 2026-05-05 01:35 | 59.70261 | 18.35503 | 2547 ft | 191 kts | 276° |
| 2026-05-05 01:35 | 59.70379 | 18.32870 | 2512 ft | 191 kts | 270° |
| 2026-05-05 01:35 | 59.70308 | 18.30262 | 2470 ft | 187 kts | 263° |
| 2026-05-05 01:36 | 59.70119 | 18.27822 | 2459 ft | 174 kts | 262° |
| 2026-05-05 01:36 | 59.69903 | 18.25497 | 2465 ft | 172 kts | 259° |
| 2026-05-05 01:36 | 59.69642 | 18.23199 | 2475 ft | 172 kts | 258° |
| 2026-05-05 01:36 | 59.69355 | 18.20904 | 2468 ft | 172 kts | 257° |
| 2026-05-05 01:37 | 59.69059 | 18.18623 | 2282 ft | 172 kts | 257° |
| 2026-05-05 01:37 | 59.68761 | 18.16346 | 2101 ft | 165 kts | 256° |
| 2026-05-05 01:37 | 59.68490 | 18.14271 | 1880 ft | 151 kts | 256° |
| 2026-05-05 01:37 | 59.68239 | 18.12327 | 1642 ft | 137 kts | 256° |
| 2026-05-05 01:38 | 59.68013 | 18.10571 | 1456 ft | 130 kts | 256° |
| 2026-05-05 01:38 | 59.67792 | 18.08853 | 1280 ft | 126 kts | 256° |
| 2026-05-05 01:38 | 59.67578 | 18.07192 | 1108 ft | 124 kts | 255° |
| 2026-05-05 01:38 | 59.67368 | 18.05549 | 954 ft | 123 kts | 255° |
| 2026-05-05 01:39 | 59.67160 | 18.03928 | 794 ft | 123 kts | 255° |
| 2026-05-05 01:39 | 59.66954 | 18.02293 | 616 ft | 122 kts | 254° |
| 2026-05-05 01:39 | 59.66742 | 18.00664 | 461 ft | 122 kts | 254° |
| 2026-05-05 01:39 | 59.66535 | 17.99046 | 284 ft | 121 kts | 253° |
| 2026-05-05 01:40 | 59.66332 | 17.97452 | 142 ft | 118 kts | 254° |
| 2026-05-05 01:40 | 59.66166 | 17.96184 | 128 ft | 70 kts | 257° |
| 2026-05-05 01:40 | 59.66083 | 17.95492 | 139 ft | 34 kts | 256° |
| 2026-05-05 01:40 | 59.66031 | 17.95092 | 138 ft | 26 kts | 256° |
| 2026-05-05 01:41 | 59.65967 | 17.94760 | 135 ft | 25 kts | 239° |
| 2026-05-05 01:41 | 59.65855 | 17.94491 | 131 ft | 25 kts | 226° |
| 2026-05-05 01:41 | 59.65745 | 17.94266 | 128 ft | 22 kts | 226° |
| 2026-05-05 01:41 | 59.65649 | 17.94051 | 126 ft | 19 kts | 237° |
| 2026-05-05 01:42 | 59.65595 | 17.93793 | 123 ft | 20 kts | 256° |
| 2026-05-05 01:42 | 59.65560 | 17.93513 | 118 ft | 16 kts | 256° |
| 2026-05-05 01:42 | 59.65522 | 17.93358 | 116 ft | 13 kts | 207° |
| 2026-05-05 01:42 | 59.65434 | 17.93355 | 116 ft | 7 kts | 152° |
| 2026-05-05 01:43 | 59.65424 | 17.93388 | 117 ft | 1 kts | 96° |
| 2026-05-05 01:43 | 59.65424 | 17.93411 | 118 ft | 1 kts | 84° |
| 2026-05-05 01:43 | 59.65427 | 17.93442 | 118 ft | 2 kts | 77° |
| 2026-05-05 01:43 | 59.65432 | 17.93483 | 119 ft | 3 kts | 76° |
| 2026-05-05 01:44 | 59.65436 | 17.93512 | 119 ft | 1 kts | 75° |
| 2026-05-05 01:44 | 59.65437 | 17.93518 | 119 ft | 0 kts | 75° |